createdAt,value
2023-03-29T00:02:08.018Z,99.90
2023-03-29T00:04:35.509Z,99.90
2023-03-29T00:07:04.525Z,99.90
2023-03-29T00:09:33.433Z,99.90
2023-03-29T00:12:01.257Z,99.90
2023-03-29T00:14:31.141Z,99.90
2023-03-29T00:16:59.085Z,99.90
2023-03-29T00:19:26.805Z,99.90
2023-03-29T00:21:53.859Z,99.90
2023-03-29T00:24:23.972Z,99.90
2023-03-29T00:26:51.095Z,99.90
2023-03-29T00:29:18.173Z,99.90
2023-03-29T00:31:51.492Z,99.90
2023-03-29T00:34:18.764Z,99.90
2023-03-29T00:36:45.746Z,99.90
2023-03-29T00:39:12.800Z,99.90
2023-03-29T00:41:39.834Z,99.90
2023-03-29T00:44:07.070Z,99.90
2023-03-29T00:46:35.229Z,99.90
2023-03-29T00:49:09.914Z,99.90
2023-03-29T00:51:41.392Z,99.90
2023-03-29T00:54:14.927Z,99.90
2023-03-29T00:56:43.791Z,99.90
2023-03-29T00:59:13.909Z,99.90
2023-03-29T01:01:42.347Z,99.90
2023-03-29T01:04:18.730Z,99.90
2023-03-29T01:06:53.856Z,99.90
2023-03-29T01:09:22.047Z,99.90
2023-03-29T01:11:53.402Z,99.90
2023-03-29T01:14:23.735Z,99.90
2023-03-29T01:16:50.829Z,99.90
2023-03-29T01:19:19.269Z,99.90
2023-03-29T01:21:51.965Z,99.90
2023-03-29T01:24:43.724Z,99.90
2023-03-29T01:27:23.626Z,99.90
2023-03-29T01:29:57.075Z,99.90
2023-03-29T01:32:27.964Z,99.90
2023-03-29T01:35:22.150Z,99.90
2023-03-29T01:37:53.122Z,99.90
2023-03-29T01:40:20.277Z,99.30
2023-03-29T01:42:51.701Z,98.20
2023-03-29T01:45:18.882Z,97.40
2023-03-29T01:47:46.492Z,97.50
2023-03-29T01:50:14.117Z,97.20
2023-03-29T01:52:45.414Z,97.40
2023-03-29T01:55:26.431Z,97.60
2023-03-29T01:57:55.708Z,97.90
2023-03-29T02:00:25.000Z,98.00
2023-03-29T02:02:52.996Z,98.10
2023-03-29T02:05:22.569Z,98.10
2023-03-29T02:07:50.660Z,98.20
2023-03-29T02:10:18.880Z,98.30
2023-03-29T02:12:46.073Z,98.50
2023-03-29T02:15:15.247Z,98.50
2023-03-29T02:17:44.314Z,98.30
2023-03-29T02:20:20.690Z,98.20
2023-03-29T02:23:09.598Z,98.30
2023-03-29T02:25:38.012Z,98.50
2023-03-29T02:28:06.257Z,98.80
2023-03-29T02:30:42.287Z,98.80
2023-03-29T02:33:19.488Z,98.90
2023-03-29T02:35:50.659Z,98.00
2023-03-29T02:38:18.890Z,97.80
2023-03-29T02:40:46.992Z,97.30
2023-03-29T02:43:15.945Z,97.30
2023-03-29T02:45:43.437Z,97.60
2023-03-29T02:48:12.193Z,97.00
2023-03-29T02:50:40.359Z,96.50
2023-03-29T02:53:17.047Z,96.70
2023-03-29T02:55:47.000Z,97.20
2023-03-29T02:58:16.397Z,99.10
2023-03-29T03:00:45.608Z,99.90
2023-03-29T03:03:13.366Z,99.90
2023-03-29T03:05:41.783Z,99.90
2023-03-29T03:08:08.798Z,99.90
2023-03-29T03:10:36.552Z,99.90
2023-03-29T03:13:04.486Z,99.90
2023-03-29T03:15:35.937Z,99.90
2023-03-29T03:18:03.970Z,99.90
2023-03-29T03:20:32.120Z,99.90
2023-03-29T03:22:59.225Z,99.90
2023-03-29T03:25:27.029Z,99.90
2023-03-29T03:27:54.390Z,99.90
2023-03-29T03:30:24.653Z,99.90
2023-03-29T03:33:11.888Z,99.90
2023-03-29T03:35:51.578Z,99.90
2023-03-29T03:38:18.566Z,99.90
2023-03-29T03:40:53.756Z,99.90
2023-03-29T03:43:20.819Z,99.90
2023-03-29T03:45:52.230Z,99.90
2023-03-29T03:48:25.767Z,99.90
2023-03-29T03:51:01.054Z,99.90
2023-03-29T03:53:34.084Z,99.90
2023-03-29T03:56:10.250Z,99.90
2023-03-29T03:58:57.128Z,99.90
2023-03-29T04:01:27.677Z,99.90
2023-03-29T04:04:04.896Z,99.90
2023-03-29T04:06:32.915Z,99.90
2023-03-29T04:09:43.591Z,99.90
2023-03-29T04:12:23.419Z,99.90
2023-03-29T04:14:51.011Z,99.90
2023-03-29T04:17:22.326Z,99.90
2023-03-29T04:19:49.554Z,99.90
2023-03-29T04:22:16.985Z,99.90
2023-03-29T04:24:45.100Z,99.90
2023-03-29T04:27:50.588Z,99.90
2023-03-29T04:30:38.130Z,99.90
2023-03-29T04:33:31.594Z,99.90
2023-03-29T04:36:01.156Z,99.90
2023-03-29T04:38:30.921Z,99.90
2023-03-29T04:41:01.283Z,99.90
2023-03-29T04:44:03.793Z,99.90
2023-03-29T04:46:32.547Z,99.90
2023-03-29T04:49:26.014Z,99.90
2023-03-29T04:51:54.864Z,99.90
2023-03-29T04:54:26.630Z,99.90
2023-03-29T04:57:19.161Z,99.90
2023-03-29T05:00:00.358Z,99.90
2023-03-29T05:02:50.232Z,99.90
2023-03-29T05:05:17.908Z,99.90
2023-03-29T05:07:46.619Z,99.90
2023-03-29T05:10:15.293Z,99.90
2023-03-29T05:12:42.751Z,99.90
2023-03-29T05:15:10.817Z,99.90
2023-03-29T05:17:38.169Z,99.90
2023-03-29T05:20:11.797Z,99.90
2023-03-29T05:22:40.356Z,99.90
2023-03-29T05:25:13.801Z,99.90
2023-03-29T05:27:43.387Z,99.90
2023-03-29T05:30:11.744Z,99.90
2023-03-29T05:32:51.831Z,99.90
2023-03-29T05:35:25.812Z,99.90
2023-03-29T05:37:53.989Z,99.90
2023-03-29T05:40:22.548Z,99.90
2023-03-29T05:43:09.470Z,99.90
2023-03-29T05:45:36.950Z,99.90
2023-03-29T05:48:05.570Z,99.90
2023-03-29T05:50:33.839Z,99.90
2023-03-29T05:53:01.184Z,99.90
2023-03-29T05:55:28.504Z,99.90
2023-03-29T05:57:55.932Z,99.90
2023-03-29T06:00:28.266Z,99.90
2023-03-29T06:03:14.120Z,99.90
2023-03-29T06:05:49.662Z,99.60
2023-03-29T06:08:17.466Z,99.10
2023-03-29T06:10:47.692Z,99.50
2023-03-29T06:13:27.980Z,99.80
2023-03-29T06:15:55.174Z,99.90
2023-03-29T06:18:23.625Z,99.90
2023-03-29T06:20:52.232Z,98.80
2023-03-29T06:23:20.644Z,98.90
2023-03-29T06:25:48.877Z,99.30
2023-03-29T06:28:16.592Z,99.40
2023-03-29T06:30:44.168Z,99.60
2023-03-29T06:33:11.994Z,99.30
2023-03-29T06:36:01.985Z,99.10
2023-03-29T06:38:31.066Z,99.50
2023-03-29T06:41:05.206Z,99.70
2023-03-29T06:43:49.894Z,99.20
2023-03-29T06:46:17.776Z,97.90
2023-03-29T06:48:56.173Z,97.70
2023-03-29T06:51:27.715Z,98.00
2023-03-29T06:53:54.820Z,98.40
2023-03-29T06:56:22.611Z,98.50
2023-03-29T06:59:16.256Z,98.40
2023-03-29T07:01:58.959Z,98.60
2023-03-29T07:04:42.020Z,98.20
2023-03-29T07:07:22.804Z,97.90
2023-03-29T07:10:07.453Z,97.50
2023-03-29T07:12:57.436Z,97.00
2023-03-29T07:15:25.224Z,95.40
2023-03-29T07:18:21.635Z,92.60
2023-03-29T07:20:50.120Z,93.50
2023-03-29T07:23:18.167Z,94.50
2023-03-29T07:25:47.133Z,95.60
2023-03-29T07:28:14.627Z,95.50
2023-03-29T07:30:41.846Z,95.10
2023-03-29T07:33:13.455Z,92.90
2023-03-29T07:35:48.763Z,94.10
2023-03-29T07:38:16.394Z,95.70
2023-03-29T07:40:48.954Z,97.00
2023-03-29T07:43:42.459Z,97.60
2023-03-29T07:46:11.588Z,97.10
2023-03-29T07:48:39.475Z,97.40
2023-03-29T07:51:09.003Z,97.50
2023-03-29T07:53:47.637Z,97.70
2023-03-29T07:56:37.318Z,98.20
2023-03-29T07:59:30.482Z,97.20
2023-03-29T08:02:09.690Z,96.20
2023-03-29T08:04:41.694Z,95.20
2023-03-29T08:07:20.106Z,95.20
2023-03-29T08:09:57.500Z,95.40
2023-03-29T08:15:13.552Z,92.30
2023-03-29T08:17:42.155Z,87.20
2023-03-29T08:20:11.569Z,80.40
2023-03-29T08:22:41.285Z,78.10
2023-03-29T08:25:35.254Z,77.70
2023-03-29T08:28:03.120Z,78.20
2023-03-29T08:30:44.119Z,79.90
2023-03-29T08:33:11.204Z,80.60
2023-03-29T08:35:38.465Z,82.10
2023-03-29T08:38:21.826Z,84.20
2023-03-29T08:40:50.320Z,85.20
2023-03-29T08:43:26.198Z,87.00
2023-03-29T08:46:16.754Z,89.80
2023-03-29T08:48:51.055Z,88.80
2023-03-29T08:51:32.578Z,89.00
2023-03-29T08:54:05.400Z,89.00
2023-03-29T08:56:52.921Z,90.30
2023-03-29T08:59:30.842Z,90.90
2023-03-29T09:02:02.499Z,90.70
2023-03-29T09:04:36.931Z,90.00
2023-03-29T09:07:13.674Z,89.10
2023-03-29T09:09:45.702Z,90.10
2023-03-29T09:12:26.854Z,88.90
2023-03-29T09:14:54.226Z,87.40
2023-03-29T09:17:24.009Z,85.40
2023-03-29T09:19:55.580Z,86.70
2023-03-29T09:22:35.354Z,87.50
2023-03-29T09:25:06.880Z,87.70
2023-03-29T09:27:50.163Z,88.40
2023-03-29T09:30:28.063Z,87.70
2023-03-29T09:33:03.575Z,89.10
2023-03-29T09:36:06.767Z,86.10
2023-03-29T09:38:37.986Z,85.50
2023-03-29T09:41:26.774Z,87.90
2023-03-29T09:43:55.968Z,89.60
2023-03-29T09:46:30.474Z,90.40
2023-03-29T09:48:57.529Z,91.10
2023-03-29T09:51:27.157Z,91.90
2023-03-29T09:53:57.910Z,92.30
2023-03-29T09:56:43.406Z,92.20
2023-03-29T09:59:14.165Z,92.30
2023-03-29T10:01:45.447Z,90.40
2023-03-29T10:04:14.310Z,88.60
2023-03-29T10:06:50.499Z,89.70
2023-03-29T10:09:23.315Z,90.70
2023-03-29T10:11:56.937Z,91.60
2023-03-29T10:14:38.349Z,92.00
2023-03-29T10:17:13.490Z,90.70
2023-03-29T10:19:47.602Z,89.40
2023-03-29T10:22:28.556Z,90.20
2023-03-29T10:24:57.321Z,90.70
2023-03-29T10:27:27.165Z,90.80
2023-03-29T10:29:55.837Z,90.40
2023-03-29T10:34:52.179Z,84.80
2023-03-29T10:37:19.888Z,79.20
2023-03-29T10:39:48.161Z,76.10
2023-03-29T10:42:17.543Z,77.50
2023-03-29T10:44:52.916Z,74.00
2023-03-29T10:47:20.784Z,71.70
2023-03-29T10:49:56.826Z,73.10
2023-03-29T10:52:24.609Z,68.20
2023-03-29T10:54:52.791Z,69.90
2023-03-29T10:57:46.284Z,74.90
2023-03-29T11:00:25.314Z,74.20
2023-03-29T11:03:13.017Z,73.80
2023-03-29T11:05:41.646Z,71.30
2023-03-29T11:08:43.501Z,65.00
2023-03-29T11:11:13.409Z,65.40
2023-03-29T11:14:01.736Z,68.20
2023-03-29T11:16:49.022Z,69.90
2023-03-29T11:19:25.031Z,70.90
2023-03-29T11:22:01.798Z,71.80
2023-03-29T11:24:37.532Z,71.30
2023-03-29T11:27:21.180Z,67.80
2023-03-29T11:30:07.171Z,68.60
2023-03-29T11:32:37.415Z,72.20
2023-03-29T11:35:13.929Z,76.00
2023-03-29T11:37:53.965Z,80.00
2023-03-29T11:40:57.906Z,81.70
2023-03-29T11:43:28.021Z,82.00
2023-03-29T11:46:00.992Z,78.10
2023-03-29T11:48:31.347Z,72.30
2023-03-29T11:51:01.745Z,69.40
2023-03-29T11:53:37.313Z,67.30
2023-03-29T11:56:10.724Z,67.70
2023-03-29T11:58:39.886Z,63.50
2023-03-29T12:01:25.746Z,62.40
2023-03-29T12:03:58.382Z,61.30
2023-03-29T12:06:25.722Z,60.00
2023-03-29T12:08:55.395Z,59.80
2023-03-29T12:11:23.084Z,59.60
2023-03-29T12:13:52.755Z,60.40
2023-03-29T12:16:40.445Z,59.80
2023-03-29T12:19:29.981Z,59.50
2023-03-29T12:21:58.264Z,58.70
2023-03-29T12:24:27.313Z,57.50
2023-03-29T12:27:12.089Z,56.50
2023-03-29T12:29:39.297Z,55.40
2023-03-29T12:32:24.984Z,55.60
2023-03-29T12:35:26.942Z,56.90
2023-03-29T12:38:24.258Z,59.30
2023-03-29T12:41:24.315Z,62.70
2023-03-29T12:44:13.659Z,63.90
2023-03-29T12:47:06.759Z,67.60
2023-03-29T12:49:35.999Z,69.10
2023-03-29T12:52:07.236Z,70.40
2023-03-29T12:54:34.342Z,70.80
2023-03-29T12:57:21.854Z,71.20
2023-03-29T12:59:49.851Z,71.50
2023-03-29T13:02:18.155Z,72.80
2023-03-29T13:04:52.512Z,74.00
2023-03-29T13:07:22.461Z,75.90
2023-03-29T13:09:51.307Z,76.40
2023-03-29T13:12:22.965Z,75.70
2023-03-29T13:14:52.318Z,75.60
2023-03-29T13:17:39.792Z,77.50
2023-03-29T13:20:26.086Z,80.10
2023-03-29T13:23:02.161Z,81.90
2023-03-29T13:25:44.724Z,82.50
2023-03-29T13:28:12.380Z,82.90
2023-03-29T13:30:43.900Z,83.50
2023-03-29T13:33:16.606Z,83.70
2023-03-29T13:35:46.992Z,84.90
2023-03-29T13:38:22.700Z,86.30
2023-03-29T13:40:53.113Z,85.20
2023-03-29T13:43:20.153Z,85.40
2023-03-29T13:45:59.533Z,84.50
2023-03-29T13:48:29.561Z,83.90
2023-03-29T13:50:56.717Z,83.50
2023-03-29T13:53:33.215Z,84.80
2023-03-29T13:56:00.607Z,83.10
2023-03-29T13:58:44.997Z,82.20
2023-03-29T14:01:16.607Z,82.80
2023-03-29T14:03:45.245Z,82.00
2023-03-29T14:06:24.190Z,83.30
2023-03-29T14:08:54.325Z,83.60
2023-03-29T14:11:28.369Z,82.30
2023-03-29T14:13:56.473Z,85.20
2023-03-29T14:16:27.288Z,86.40
2023-03-29T14:18:58.156Z,86.80
2023-03-29T14:21:25.886Z,83.60
2023-03-29T14:24:00.688Z,82.00
2023-03-29T14:26:34.736Z,82.20
2023-03-29T14:29:03.014Z,82.20
2023-03-29T14:31:31.719Z,82.80
2023-03-29T14:33:59.743Z,83.10
2023-03-29T14:36:27.850Z,82.60
2023-03-29T14:39:13.204Z,81.90
2023-03-29T14:41:46.202Z,82.20
2023-03-29T14:44:13.559Z,82.40
2023-03-29T14:46:41.824Z,82.40
2023-03-29T14:49:10.007Z,83.40
2023-03-29T14:51:40.606Z,84.40
2023-03-29T14:54:07.865Z,85.00
2023-03-29T14:56:35.226Z,85.50
2023-03-29T14:59:04.893Z,86.10
2023-03-29T15:01:32.462Z,86.70
2023-03-29T15:04:04.732Z,87.00
2023-03-29T15:06:32.756Z,87.10
2023-03-29T15:09:06.806Z,87.20
2023-03-29T15:11:35.995Z,86.70
2023-03-29T15:14:23.784Z,87.00
2023-03-29T15:16:52.774Z,87.20
2023-03-29T15:19:21.399Z,88.00
2023-03-29T15:21:51.896Z,88.20
2023-03-29T15:24:28.942Z,88.20
2023-03-29T15:27:01.391Z,88.30
2023-03-29T15:29:41.795Z,88.50
2023-03-29T15:32:10.139Z,88.90
2023-03-29T15:34:38.421Z,90.00
2023-03-29T15:37:05.704Z,90.00
2023-03-29T15:39:32.631Z,90.30
2023-03-29T15:41:59.853Z,90.40
2023-03-29T15:44:28.791Z,90.50
2023-03-29T15:46:57.960Z,90.30
2023-03-29T15:49:25.498Z,90.50
2023-03-29T15:51:54.141Z,91.10
2023-03-29T15:54:21.845Z,91.30
2023-03-29T15:56:51.361Z,91.50
2023-03-29T15:59:18.362Z,91.60
2023-03-29T16:01:46.908Z,91.90
2023-03-29T16:04:15.145Z,92.10
2023-03-29T16:06:43.274Z,91.60
2023-03-29T16:09:12.104Z,91.60
2023-03-29T16:11:40.923Z,91.90
2023-03-29T16:14:23.080Z,92.20
2023-03-29T16:16:51.129Z,92.40
2023-03-29T16:19:18.454Z,92.50
2023-03-29T16:21:45.799Z,92.70
2023-03-29T16:24:17.147Z,92.80
2023-03-29T16:26:44.330Z,92.90
2023-03-29T16:29:11.388Z,92.90
2023-03-29T16:31:38.562Z,93.00
2023-03-29T16:34:06.150Z,93.10
2023-03-29T16:36:33.961Z,93.20
2023-03-29T16:39:00.869Z,93.40
2023-03-29T16:41:28.297Z,93.40
2023-03-29T16:43:56.031Z,93.30
2023-03-29T16:46:23.458Z,93.30
2023-03-29T16:48:51.552Z,93.20
2023-03-29T16:51:18.552Z,93.20
2023-03-29T16:53:47.780Z,93.30
2023-03-29T16:56:15.186Z,93.40
2023-03-29T16:58:42.634Z,93.50
2023-03-29T17:01:10.840Z,93.50
2023-03-29T17:03:38.052Z,93.70
2023-03-29T17:06:05.640Z,93.70
2023-03-29T17:08:33.323Z,93.80
2023-03-29T17:11:01.217Z,93.80
2023-03-29T17:13:28.370Z,93.90
2023-03-29T17:15:56.086Z,93.90
2023-03-29T17:18:24.145Z,94.00
2023-03-29T17:20:51.771Z,93.90
2023-03-29T17:23:19.031Z,93.90
2023-03-29T17:25:46.035Z,93.90
2023-03-29T17:28:12.986Z,94.20
2023-03-29T17:30:40.507Z,94.30
2023-03-29T17:33:08.268Z,94.20
2023-03-29T17:35:35.708Z,94.30
2023-03-29T17:38:03.107Z,94.20
2023-03-29T17:40:30.158Z,94.20
2023-03-29T17:42:58.705Z,94.10
2023-03-29T17:45:25.842Z,94.20
2023-03-29T17:47:53.139Z,94.20
2023-03-29T17:50:21.237Z,94.20
2023-03-29T17:52:48.360Z,94.30
2023-03-29T17:55:15.694Z,94.40
2023-03-29T17:57:43.940Z,94.40
2023-03-29T18:00:12.366Z,94.50
2023-03-29T18:02:40.823Z,94.40
2023-03-29T18:05:09.488Z,94.50
2023-03-29T18:07:37.213Z,94.50
2023-03-29T18:10:04.381Z,94.70
2023-03-29T18:12:31.736Z,94.80
2023-03-29T18:14:59.010Z,94.70
2023-03-29T18:17:27.514Z,94.80
2023-03-29T18:19:54.724Z,95.00
2023-03-29T18:22:24.216Z,94.90
2023-03-29T18:24:51.308Z,94.90
2023-03-29T18:27:20.950Z,95.00
2023-03-29T18:29:47.933Z,95.10
2023-03-29T18:32:15.197Z,95.30
2023-03-29T18:34:42.296Z,95.40
2023-03-29T18:37:14.643Z,95.30
2023-03-29T18:39:41.957Z,95.40
2023-03-29T18:42:11.617Z,95.50
2023-03-29T18:44:40.364Z,95.60
2023-03-29T18:47:07.522Z,95.50
2023-03-29T18:49:34.589Z,95.70
2023-03-29T18:52:02.143Z,95.80
2023-03-29T18:54:29.143Z,95.60
2023-03-29T18:56:58.698Z,95.80
2023-03-29T18:59:26.624Z,96.30
2023-03-29T19:01:53.766Z,96.40
2023-03-29T19:04:20.917Z,96.30
2023-03-29T19:06:49.487Z,96.20
2023-03-29T19:09:16.609Z,96.40
2023-03-29T19:11:43.762Z,96.30
2023-03-29T19:14:10.695Z,96.40
2023-03-29T19:16:39.303Z,96.30
2023-03-29T19:19:07.252Z,96.50
2023-03-29T19:21:34.417Z,96.60
2023-03-29T19:24:05.071Z,96.70
2023-03-29T19:26:33.699Z,96.80
2023-03-29T19:29:01.259Z,96.70
2023-03-29T19:31:28.424Z,96.80
2023-03-29T19:33:55.640Z,96.70
2023-03-29T19:36:22.643Z,96.80
2023-03-29T19:38:50.206Z,97.00
2023-03-29T19:41:17.484Z,96.90
2023-03-29T19:43:44.618Z,96.90
2023-03-29T19:46:12.487Z,96.90
2023-03-29T19:48:40.229Z,97.00
2023-03-29T19:51:08.052Z,97.10
2023-03-29T19:53:38.446Z,97.30
2023-03-29T19:56:07.858Z,97.40
2023-03-29T19:58:37.701Z,97.50
2023-03-29T20:01:04.946Z,97.60
2023-03-29T20:03:34.334Z,97.80
2023-03-29T20:06:01.653Z,97.80
2023-03-29T20:08:28.952Z,97.90
2023-03-29T20:10:59.352Z,98.00
2023-03-29T20:13:37.672Z,98.00
2023-03-29T20:16:06.692Z,98.10
2023-03-29T20:18:33.866Z,98.30
2023-03-29T20:21:01.992Z,98.40
2023-03-29T20:23:30.051Z,98.40
2023-03-29T20:25:57.403Z,98.60
2023-03-29T20:28:25.167Z,98.70
2023-03-29T20:30:55.947Z,98.80
2023-03-29T20:33:23.232Z,98.80
2023-03-29T20:35:50.517Z,98.90
2023-03-29T20:38:18.035Z,98.90
2023-03-29T20:40:45.070Z,99.10
2023-03-29T20:43:18.501Z,99.20
2023-03-29T20:45:52.779Z,99.20
2023-03-29T20:48:23.585Z,99.10
2023-03-29T20:50:51.505Z,99.10
2023-03-29T20:53:20.527Z,99.10
2023-03-29T20:55:51.815Z,99.10
2023-03-29T20:58:19.356Z,99.10
2023-03-29T21:00:48.611Z,99.10
2023-03-29T21:03:15.979Z,99.20
2023-03-29T21:05:43.596Z,99.40
2023-03-29T21:08:11.138Z,99.30
2023-03-29T21:10:38.288Z,99.30
2023-03-29T21:13:06.122Z,99.30
2023-03-29T21:15:33.801Z,99.20
2023-03-29T21:18:01.539Z,99.00
2023-03-29T21:20:28.708Z,99.10
2023-03-29T21:22:56.128Z,99.10
2023-03-29T21:25:23.104Z,99.10
2023-03-29T21:27:50.378Z,99.10
2023-03-29T21:30:17.334Z,99.10
2023-03-29T21:32:44.711Z,99.20
2023-03-29T21:35:11.896Z,99.20
2023-03-29T21:37:39.319Z,99.10
2023-03-29T21:40:08.456Z,99.20
2023-03-29T21:42:35.852Z,99.20
2023-03-29T21:45:03.175Z,99.30
2023-03-29T21:47:30.672Z,99.40
2023-03-29T21:49:57.781Z,99.40
2023-03-29T21:52:24.828Z,99.40
2023-03-29T21:54:51.895Z,99.60
2023-03-29T21:57:19.258Z,99.60
2023-03-29T21:59:46.241Z,99.60
2023-03-29T22:02:13.575Z,99.60
2023-03-29T22:04:40.644Z,99.60
2023-03-29T22:07:10.750Z,99.70
2023-03-29T22:09:37.893Z,99.90
2023-03-29T22:12:05.250Z,99.90
2023-03-29T22:14:35.268Z,99.90
2023-03-29T22:17:05.643Z,99.90
2023-03-29T22:19:33.938Z,99.90
2023-03-29T22:22:01.575Z,99.90
2023-03-29T22:24:44.251Z,99.90
2023-03-29T22:27:11.933Z,99.90
2023-03-29T22:29:38.945Z,99.90
2023-03-29T22:32:05.983Z,99.90
2023-03-29T22:34:33.547Z,99.90
2023-03-29T22:37:00.490Z,99.90
2023-03-29T22:39:28.587Z,99.90
2023-03-29T22:41:55.768Z,99.90
2023-03-29T22:44:22.934Z,99.90
2023-03-29T22:46:50.029Z,99.90
2023-03-29T22:49:17.231Z,99.90
2023-03-29T22:51:44.274Z,99.90
2023-03-29T22:54:12.136Z,99.80
2023-03-29T22:56:39.116Z,99.80
2023-03-29T22:59:06.699Z,99.70
2023-03-29T23:01:33.758Z,99.70
2023-03-29T23:04:01.081Z,99.60
2023-03-29T23:06:28.071Z,99.70
2023-03-29T23:08:55.550Z,99.80
2023-03-29T23:11:22.964Z,99.60
2023-03-29T23:13:50.185Z,99.80
2023-03-29T23:16:17.318Z,99.80
2023-03-29T23:18:45.416Z,99.90
2023-03-29T23:21:15.852Z,99.70
2023-03-29T23:23:43.513Z,99.80
2023-03-29T23:26:12.753Z,99.90
2023-03-29T23:28:41.126Z,99.90
2023-03-29T23:31:10.268Z,99.80
2023-03-29T23:33:41.234Z,99.40
2023-03-29T23:36:10.892Z,99.90
2023-03-29T23:38:38.897Z,99.90
2023-03-29T23:41:08.633Z,99.90
2023-03-29T23:43:37.637Z,99.90
2023-03-29T23:46:06.048Z,99.90
2023-03-29T23:48:34.773Z,99.90
2023-03-29T23:51:02.624Z,99.90
2023-03-29T23:53:33.909Z,99.90
2023-03-29T23:56:01.919Z,99.90
2023-03-29T23:58:30.567Z,99.90
